• Join FlightAware (Why Join?)
  • Login
  • US Flag 
10:48AM EDT


 

Airport Tracker/Info


-or-


 

Live Flight TrackerFlight Track Log ✈ SWA1969 ✈ 05-Apr-2013 ✈ KDAL - KOKC

Flight Track Log - Related Links

Times and Time Zones

All times are in EDT time to prevent confusion due to time zone crossing. See the SWA1969 flight status page for this flight to view local times or setup timezone preferences in your user account.

Time Position Orientation Groundspeed Altitude Reporting Facility
EDT Latitude Longitude Course Direction KTS MPH feet Rate Location/Type
07:56AM 32.8833 -96.9000 351° North 192 221 2,800  Level Dallas / Fort Worth TRACON
07:57AM 32.9333 -96.9500 320° Northwest 258 297 4,900 3,060 Climbing Dallas / Fort Worth TRACON
07:58AM 33.0000 -96.9667 348° North 265 305 8,700 3,240 Climbing Dallas / Fort Worth TRACON
07:59AM 33.1356 -97.0142 344° North 303 349 13,900 3,000 Climbing Fort Worth Center
08:00AM 33.2169 -97.0411 345° North 323 372 17,100 3,000 Climbing Fort Worth Center
08:01AM 33.2572 -96.9381 351° North  Level FlightAware Approximate
08:01AM 33.3192 -97.0556 353° North 357 411 20,000  Level Fort Worth Center
08:02AM 33.4300 -97.0700 354° North 368 423 23,000 2,700 Climbing Fort Worth Center
08:03AM 33.5364 -97.0844 354° North 374 430 25,400 2,700 Climbing Fort Worth Center
08:04AM 33.6408 -97.1017 352° North 379 436 28,400 1,800 Climbing Fort Worth Center
08:05AM 33.7472 -97.1161 354° North 379 436 29,000 300 Climbing Fort Worth Center
08:06AM 33.8392 -97.1308 352° North 379 436 29,000  Level Fort Worth Center
08:07AM 33.9497 -97.1456 354° North 390 449 29,000  Level Fort Worth Center
08:08AM 34.0603 -97.1628 353° North 390 449 29,000  Level Fort Worth Center
08:09AM 34.1794 -97.1825 352° North 390 449 29,000 -240 Level Fort Worth Center
08:10AM 34.2922 -97.1997 353° North 390 449 28,600 -1,860 Descending Fort Worth Center
08:11AM 34.4028 -97.2272 348° North 395 455 25,300 -3,360 Descending Fort Worth Center
08:12AM 34.5092 -97.2700 342° North 395 455 21,900 -3,420 Descending Fort Worth Center
08:13AM 34.6156 -97.3125 342° North 400 460 18,500 -3,300 Descending Fort Worth Center
08:14AM 34.7200 -97.3528 342° North 400 460 15,300 -2,400 Descending Fort Worth Center
08:15AM 34.8158 -97.3933 341° North 388 447 13,700 -1,800 Descending Fort Worth Center
08:16AM 34.9036 -97.4261 343° North 353 406 11,700 -1,620 Descending Fort Worth Center
08:17AM 34.9933 -97.4414 352° North 328 377 10,500 -1,080 Descending Fort Worth Center
08:19AM 35.0831 -97.4542 353° North 286 329 9,400 -1,200 Descending Fort Worth Center
08:19AM 35.1475 -97.4669 351° North 286 329 8,200 -1,500 Descending Fort Worth Center
08:20AM 35.2228 -97.4797 352° North 279 321 6,700 -1,560 Descending Fort Worth Center
08:21AM 35.2978 -97.4925 352° North 274 315 5,100 -1,680 Descending Fort Worth Center
08:22AM 35.3750 -97.5053 352° North 274 315 3,400 -1,080 Descending Fort Worth Center
08:23AM 35.4458 -97.5181 352° North 274 315 3,000 -360 Descending Fort Worth Center
08:24AM 35.4853 -97.5639 317° Northwest 215 247 2,700 -480 Descending Fort Worth Center
08:25AM 35.4625 -97.5919 225° Southwest 105 121 2,100 -540 Descending Fort Worth Center
08:27AM 35.4164 -97.5919 180° South 124 143 1,600 -420 Descending Fort Worth Center
08:27AM 35.4019 -97.5969 196° South 90 104 1,300 5,280 Descending Fort Worth Center
08:28AM 35.3747 -97.6044 193° South 90 104 11,000 4,800 Climbing Fort Worth Center
08:29AM 35.3497 -97.6094 189° South 90 104 11,000  Level Fort Worth Center